Vaughan, Mississippi
Current Conditions -  °F | °C
As of 9:50 PM on Friday 19 Dec 2014 (Local Time) from KJAN Reporting Station
Overcast Overcast  
Wind Chill: 41°   Ceiling: 800
Heat Index: 46°   Visibility: 10mi
Dew Point: 43°   Wind: 12mph
Humidity: 87%   Direction: 360°N
Pressure: 30.18"   Gusts: NA
Location:  32.81°N, 90.04°W
Report Text: KJAN 200350Z 36010KT 10SM BKN008 OVC012 08/06 A3018 RMK AO2 CIG 007V011
Loading
Personal Weather Stations






























Interactive Weather Map New forecast layout! Learn more

10-Day Weather Forecast

Advertisements
Track Severe Weather on mobile